Buoy 46535

sailwx.info

Track history (hours):
 
Tides and Currents Weather Stations Pressure Air Temp Water Temp Dewpoint Dewpoint Depression Visibility Wind Speed Wind Dir Waves Ship Positions

Drifting buoy 46535

Last reported at 2015-Jul-07 03:50 UTC. Time now 2015-Jul-07 06:51 UTC.
Position N 54°28' W 169°40'.

Barometer 998.8 mb
Water temperature 8.8 ° C

Date/timePositionNaut miles runAvg speedWind from/ knotsBaromVisibWave heightAir tempDewpointWater temp
2015-Jul-07 03:50N 54°28' W 169°40'0 0.0 998.8 8.8
2015-Jul-07 02:50N 54°28' W 169°40'0 0.0 998.1 8.8
2015-Jul-07 01:50N 54°28' W 169°40'0 0.1 997.3 8.8
2015-Jul-06 22:50N 54°28' W 169°39'1 0.6 994.6 8.8
2015-Jul-06 21:50N 54°28' W 169°40'1 0.6 993.7 8.8
2015-Jul-06 20:50N 54°28' W 169°41'2 0.6 992.9 8.8
2015-Jul-06 17:50N 54°26' W 169°41'1 0.6 990.9 8.8
2015-Jul-06 16:50N 54°25' W 169°41'1 0.3 990.5 8.8
2015-Jul-06 14:50N 54°25' W 169°40'2 0.5 989.6 8.9
2015-Jul-06 10:50N 54°23' W 169°40'0 0.0 987.9 9.0
2015-Jul-06 08:50N 54°23' W 169°40'2 0.4 986.4 9.0
2015-Jul-06 02:50N 54°21' W 169°41'1 0.4 984.4 8.9
2015-Jul-05 23:50N 54°19' W 169°40'0 0.0 985.9 8.8
2015-Jul-05 22:50N 54°19' W 169°40'3 0.7 987.0 8.8
2015-Jul-05 17:50N 54°19' W 169°34'0 0.3 992.5 8.8
2015-Jul-05 16:50N 54°19' W 169°34'0 0.2 993.9 8.8
2015-Jul-05 15:50N 54°19' W 169°34'1 0.4 994.9 8.8
2015-Jul-05 12:50N 54°19' W 169°32'1 0.4 997.8 8.9
2015-Jul-05 08:50N 54°17' W 169°33'0 0.0 1000.3 8.9
2015-Jul-05 07:50N 54°17' W 169°33'1 0.5 1000.1 8.9
2015-Jul-05 04:50N 54°17' W 169°31'3 0.5 999.6 8.9
2015-Jul-04 23:50N 54°14' W 169°33'0 0.1 999.1 9.0
2015-Jul-04 22:50N 54°14' W 169°33'1 0.9 999.2 9.1
2015-Jul-04 21:50N 54°14' W 169°31'2 0.6 998.9 9.1
2015-Jul-04 18:50N 54°14' W 169°29'0 0.0 999.0 8.6
2015-Jul-04 17:50N 54°14' W 169°29'1 0.5 999.0 8.6
2015-Jul-04 15:50N 54°15' W 169°30'0 0.5 999.2 8.5
2015-Jul-04 14:50N 54°14' W 169°30'3 0.6 999.4 8.5
2015-Jul-04 09:50N 54°12' W 169°29'2 0.5 1001.1 8.5
2015-Jul-04 05:50N 54°12' W 169°25'1 0.8 1001.3 8.5
2015-Jul-04 04:50N 54°13' W 169°25'2 0.7 1001.7 8.5
2015-Jul-04 01:50N 54°11' W 169°27'1 0.8 1003.2 8.4
2015-Jul-04 00:50N 54°10' W 169°27'1 0.8 1003.7 8.4
2015-Jul-03 23:50N 54°10' W 169°26'1 1.0 1004.0 8.4
2015-Jul-03 22:50N 54°09' W 169°25'2 0.8 1004.6 8.4
2015-Jul-03 20:50N 54°09' W 169°23'0 0.0 1005.4 8.4
2015-Jul-03 19:50N 54°09' W 169°23'1 0.8 1005.6 8.4
2015-Jul-03 18:50N 54°09' W 169°21'0 0.0 1006.0 8.4
2015-Jul-03 17:50N 54°09' W 169°21'0 0.2 1006.3 8.4
2015-Jul-03 15:50N 54°08' W 169°21'0 0.1 1006.5 8.4
2015-Jul-03 14:50N 54°08' W 169°21'0 0.3 1006.8 8.4
2015-Jul-03 13:50N 54°08' W 169°21'0 0.1 1007.0 8.4
2015-Jul-03 12:50N 54°08' W 169°22'2 0.4 1007.3 8.4
2015-Jul-03 08:50N 54°06' W 169°22'1 1.3 1008.0 8.4
2015-Jul-03 07:50N 54°05' W 169°23'1 1.2 1007.7 8.5
2015-Jul-03 06:50N 54°05' W 169°22'1 1.4 1007.9 8.5
2015-Jul-03 05:50N 54°04' W 169°21'1 0.5 1008.1 8.5
2015-Jul-03 03:50N 54°03' W 169°19'0 0.5 1008.7 8.5
2015-Jul-03 02:50N 54°03' W 169°18'1 0.6 1009.1 8.5
2015-Jul-03 01:50N 54°03' W 169°19'0 0.3 1009.4 8.4
2015-Jul-03 00:50N 54°03' W 169°19'0 0.1 1010.0 8.4
2015-Jul-02 23:50N 54°03' W 169°19'1 0.6 1010.8 8.4
2015-Jul-02 22:50N 54°02' W 169°19'0 0.4 1011.2 8.4
2015-Jul-02 21:50N 54°02' W 169°20'4 0.6 1011.4 8.4
2015-Jul-02 15:50N 53°58' W 169°20'1 0.7 1012.2 8.5
2015-Jul-02 14:50N 53°57' W 169°19'3 1.1 1012.2 8.5
2015-Jul-02 11:50N 53°54' W 169°22'2 1.7 1013.7 8.5
2015-Jul-02 10:50N 53°56' W 169°20'2 1.0 1013.8 8.5
2015-Jul-02 08:50N 53°54' W 169°22'1 0.7 1014.8 8.5
2015-Jul-02 07:50N 53°54' W 169°22'3 1.0 1015.0 8.5
2015-Jul-02 04:50N 53°50' W 169°22'1 0.7 1015.2 8.5
2015-Jul-02 03:50N 53°50' W 169°23'2 0.7 1015.6 8.5
2015-Jul-02 00:50N 53°48' W 169°23'3 0.9 1016.2 8.4
2015-Jul-01 21:50N 53°45' W 169°21'2 0.6 1017.4 8.4
2015-Jul-01 17:50N 53°44' W 169°18'0 0.1 1017.9 8.5
2015-Jul-01 16:50N 53°44' W 169°18'2 0.8 1018.2 8.5
2015-Jul-01 14:50N 53°42' W 169°17'1 0.6 1018.0 8.6
2015-Jul-01 13:50N 53°42' W 169°17'2 1.8 1018.1 8.6
2015-Jul-01 12:50N 53°41' W 169°14'0 0.1 1018.3 8.7
2015-Jul-01 11:50N 53°41' W 169°14'2 0.8 1018.5 8.8
2015-Jul-01 08:50N 53°40' W 169°11'1 0.3 1019.2 8.8
2015-Jul-01 06:50N 53°40' W 169°09'0 0.5 1019.1 8.8
2015-Jul-01 05:50N 53°40' W 169°09'0 0.5 1019.0 8.9
2015-Jul-01 04:50N 53°40' W 169°08'0 0.2 1019.1 8.9
2015-Jul-01 03:50N 53°39' W 169°08'2 0.6 1019.0 8.8
2015-Jun-30 23:50N 53°39' W 169°04'1 0.9 1019.7 8.7
2015-Jun-30 22:50N 53°39' W 169°03'0 0.1 1019.8 8.6
2015-Jun-30 21:50N 53°39' W 169°03'1 0.9 1019.7 8.6
2015-Jun-30 20:50N 53°39' W 169°01'1 1.0 1019.3 8.5
2015-Jun-30 19:50N 53°39' W 168°60'1 0.6 1019.3 8.4
2015-Jun-30 17:50N 53°40' W 168°59'1 0.3 1019.5 8.4
2015-Jun-30 14:50N 53°41' W 168°57'1 1.2 1019.0 8.4
2015-Jun-30 13:50N 53°41' W 168°56'1 0.4 1019.2 8.4
2015-Jun-30 10:50N 53°42' W 168°54'0 0.2 1019.3 8.5
2015-Jun-30 08:50N 53°43' W 168°54'0 0.2 1018.6 8.5
2015-Jun-30 07:50N 53°43' W 168°54'1 0.3 1018.5 8.5
2015-Jun-30 05:50N 53°43' W 168°53'2 0.4 1017.6 8.6
2015-Jun-29 23:50N 53°45' W 168°53'3 0.4 1015.8 8.7
2015-Jun-29 15:50N 53°48' W 168°54'2 1.5 1013.9 8.5
2015-Jun-29 14:50N 53°49' W 168°56'0 0.2 1013.6 8.6
2015-Jun-29 13:50N 53°50' W 168°56'0 0.0 1013.2 8.6
2015-Jun-29 12:50N 53°50' W 168°56'1 0.2 1013.1 8.6
2015-Jun-29 09:50N 53°50' W 168°57'2 0.6 1013.3 8.6
2015-Jun-29 05:50N 53°52' W 168°58'1 0.7 1012.8 8.5
2015-Jun-29 04:50N 53°53' W 168°58'1 1.0 1012.6 8.5
2015-Jun-29 03:50N 53°53' W 168°60'1 0.6 1012.6 8.5
2015-Jun-29 02:50N 53°53' W 168°60'1 0.6 1012.8 8.5
2015-Jun-29 01:50N 53°54' W 169°01'1 0.7 1013.3 8.4
2015-Jun-29 00:50N 53°53' W 169°02'1 0.3 1013.4 8.4
2015-Jun-28 22:50N 53°53' W 169°03'0 0.2 1013.9 8.4
2015-Jun-28 20:50N 53°54' W 169°03'0 0.3 1014.1 8.3
2015-Jun-28 19:50N 53°54' W 169°04'1 0.4 1014.4 8.2
2015-Jun-28 16:50N 53°55' W 169°04'1 0.5 1014.2 8.2
2015-Jun-28 14:50N 53°56' W 169°05'2 0.3 1014.2 8.2
2015-Jun-28 07:50N 53°56' W 169°09'1 1.0 1015.4 8.2
2015-Jun-28 06:50N 53°56' W 169°07'3 0.5 1015.3 8.2
2015-Jun-28 01:50N 53°58' W 169°10'0 0.5 1016.2 8.2
2015-Jun-28 00:50N 53°58' W 169°11'0 0.1 1016.4 8.2
2015-Jun-27 20:50N 53°58' W 169°12'3 0.5 1017.2 8.3
2015-Jun-27 15:50N 54°01' W 169°13'1 0.1 1017.6 8.4
2015-Jun-27 05:50N 54°01' W 169°15'0 0.3 1019.4 8.5
2015-Jun-27 04:50N 54°01' W 169°15'   1019.3 8.5
Track history (hours):
 
Tides and Currents Weather Stations Pressure Air Temp Water Temp Dewpoint Dewpoint Depression Visibility Wind Speed Wind Dir Waves Ship Positions

Drifting buoy 46535

Last reported at 2015-Jul-07 03:50 UTC. Time now 2015-Jul-07 06:51 UTC.
Position N 54°28' W 169°40'.

Barometer 998.8 mb
Water temperature 8.8 ° C

Date/timePositionNaut miles runAvg speedWind from/ knotsBaromVisibWave heightAir tempDewpointWater temp
2015-Jul-07 03:50N 54°28' W 169°40'0 0.0 998.8 8.8
2015-Jul-07 02:50N 54°28' W 169°40'0 0.0 998.1 8.8
2015-Jul-07 01:50N 54°28' W 169°40'0 0.1 997.3 8.8
2015-Jul-06 22:50N 54°28' W 169°39'1 0.6 994.6 8.8
2015-Jul-06 21:50N 54°28' W 169°40'1 0.6 993.7 8.8
2015-Jul-06 20:50N 54°28' W 169°41'2 0.6 992.9 8.8
2015-Jul-06 17:50N 54°26' W 169°41'1 0.6 990.9 8.8
2015-Jul-06 16:50N 54°25' W 169°41'1 0.3 990.5 8.8
2015-Jul-06 14:50N 54°25' W 169°40'2 0.5 989.6 8.9
2015-Jul-06 10:50N 54°23' W 169°40'0 0.0 987.9 9.0
2015-Jul-06 08:50N 54°23' W 169°40'2 0.4 986.4 9.0
2015-Jul-06 02:50N 54°21' W 169°41'1 0.4 984.4 8.9
2015-Jul-05 23:50N 54°19' W 169°40'0 0.0 985.9 8.8
2015-Jul-05 22:50N 54°19' W 169°40'3 0.7 987.0 8.8
2015-Jul-05 17:50N 54°19' W 169°34'0 0.3 992.5 8.8
2015-Jul-05 16:50N 54°19' W 169°34'0 0.2 993.9 8.8
2015-Jul-05 15:50N 54°19' W 169°34'1 0.4 994.9 8.8
2015-Jul-05 12:50N 54°19' W 169°32'1 0.4 997.8 8.9
2015-Jul-05 08:50N 54°17' W 169°33'0 0.0 1000.3 8.9
2015-Jul-05 07:50N 54°17' W 169°33'1 0.5 1000.1 8.9
2015-Jul-05 04:50N 54°17' W 169°31'3 0.5 999.6 8.9
2015-Jul-04 23:50N 54°14' W 169°33'0 0.1 999.1 9.0
2015-Jul-04 22:50N 54°14' W 169°33'1 0.9 999.2 9.1
2015-Jul-04 21:50N 54°14' W 169°31'2 0.6 998.9 9.1
2015-Jul-04 18:50N 54°14' W 169°29'0 0.0 999.0 8.6
2015-Jul-04 17:50N 54°14' W 169°29'1 0.5 999.0 8.6
2015-Jul-04 15:50N 54°15' W 169°30'0 0.5 999.2 8.5
2015-Jul-04 14:50N 54°14' W 169°30'3 0.6 999.4 8.5
2015-Jul-04 09:50N 54°12' W 169°29'2 0.5 1001.1 8.5
2015-Jul-04 05:50N 54°12' W 169°25'1 0.8 1001.3 8.5
2015-Jul-04 04:50N 54°13' W 169°25'2 0.7 1001.7 8.5
2015-Jul-04 01:50N 54°11' W 169°27'1 0.8 1003.2 8.4
2015-Jul-04 00:50N 54°10' W 169°27'1 0.8 1003.7 8.4
2015-Jul-03 23:50N 54°10' W 169°26'1 1.0 1004.0 8.4
2015-Jul-03 22:50N 54°09' W 169°25'2 0.8 1004.6 8.4
2015-Jul-03 20:50N 54°09' W 169°23'0 0.0 1005.4 8.4
2015-Jul-03 19:50N 54°09' W 169°23'1 0.8 1005.6 8.4
2015-Jul-03 18:50N 54°09' W 169°21'0 0.0 1006.0 8.4
2015-Jul-03 17:50N 54°09' W 169°21'0 0.2 1006.3 8.4
2015-Jul-03 15:50N 54°08' W 169°21'0 0.1 1006.5 8.4
2015-Jul-03 14:50N 54°08' W 169°21'0 0.3 1006.8 8.4
2015-Jul-03 13:50N 54°08' W 169°21'0 0.1 1007.0 8.4
2015-Jul-03 12:50N 54°08' W 169°22'2 0.4 1007.3 8.4
2015-Jul-03 08:50N 54°06' W 169°22'1 1.3 1008.0 8.4
2015-Jul-03 07:50N 54°05' W 169°23'1 1.2 1007.7 8.5
2015-Jul-03 06:50N 54°05' W 169°22'1 1.4 1007.9 8.5
2015-Jul-03 05:50N 54°04' W 169°21'1 0.5 1008.1 8.5
2015-Jul-03 03:50N 54°03' W 169°19'0 0.5 1008.7 8.5
2015-Jul-03 02:50N 54°03' W 169°18'1 0.6 1009.1 8.5
2015-Jul-03 01:50N 54°03' W 169°19'0 0.3 1009.4 8.4
2015-Jul-03 00:50N 54°03' W 169°19'0 0.1 1010.0 8.4
2015-Jul-02 23:50N 54°03' W 169°19'1 0.6 1010.8 8.4
2015-Jul-02 22:50N 54°02' W 169°19'0 0.4 1011.2 8.4
2015-Jul-02 21:50N 54°02' W 169°20'4 0.6 1011.4 8.4
2015-Jul-02 15:50N 53°58' W 169°20'1 0.7 1012.2 8.5
2015-Jul-02 14:50N 53°57' W 169°19'3 1.1 1012.2 8.5
2015-Jul-02 11:50N 53°54' W 169°22'2 1.7 1013.7 8.5
2015-Jul-02 10:50N 53°56' W 169°20'2 1.0 1013.8 8.5
2015-Jul-02 08:50N 53°54' W 169°22'1 0.7 1014.8 8.5
2015-Jul-02 07:50N 53°54' W 169°22'3 1.0 1015.0 8.5
2015-Jul-02 04:50N 53°50' W 169°22'1 0.7 1015.2 8.5
2015-Jul-02 03:50N 53°50' W 169°23'2 0.7 1015.6 8.5
2015-Jul-02 00:50N 53°48' W 169°23'3 0.9 1016.2 8.4
2015-Jul-01 21:50N 53°45' W 169°21'2 0.6 1017.4 8.4
2015-Jul-01 17:50N 53°44' W 169°18'0 0.1 1017.9 8.5
2015-Jul-01 16:50N 53°44' W 169°18'2 0.8 1018.2 8.5
2015-Jul-01 14:50N 53°42' W 169°17'1 0.6 1018.0 8.6
2015-Jul-01 13:50N 53°42' W 169°17'2 1.8 1018.1 8.6
2015-Jul-01 12:50N 53°41' W 169°14'0 0.1 1018.3 8.7
2015-Jul-01 11:50N 53°41' W 169°14'2 0.8 1018.5 8.8
2015-Jul-01 08:50N 53°40' W 169°11'1 0.3 1019.2 8.8
2015-Jul-01 06:50N 53°40' W 169°09'0 0.5 1019.1 8.8
2015-Jul-01 05:50N 53°40' W 169°09'0 0.5 1019.0 8.9
2015-Jul-01 04:50N 53°40' W 169°08'0 0.2 1019.1 8.9
2015-Jul-01 03:50N 53°39' W 169°08'2 0.6 1019.0 8.8
2015-Jun-30 23:50N 53°39' W 169°04'1 0.9 1019.7 8.7
2015-Jun-30 22:50N 53°39' W 169°03'0 0.1 1019.8 8.6
2015-Jun-30 21:50N 53°39' W 169°03'1 0.9 1019.7 8.6
2015-Jun-30 20:50N 53°39' W 169°01'1 1.0 1019.3 8.5
2015-Jun-30 19:50N 53°39' W 168°60'1 0.6 1019.3 8.4
2015-Jun-30 17:50N 53°40' W 168°59'1 0.3 1019.5 8.4
2015-Jun-30 14:50N 53°41' W 168°57'1 1.2 1019.0 8.4
2015-Jun-30 13:50N 53°41' W 168°56'1 0.4 1019.2 8.4
2015-Jun-30 10:50N 53°42' W 168°54'0 0.2 1019.3 8.5
2015-Jun-30 08:50N 53°43' W 168°54'0 0.2 1018.6 8.5
2015-Jun-30 07:50N 53°43' W 168°54'1 0.3 1018.5 8.5
2015-Jun-30 05:50N 53°43' W 168°53'2 0.4 1017.6 8.6
2015-Jun-29 23:50N 53°45' W 168°53'3 0.4 1015.8 8.7
2015-Jun-29 15:50N 53°48' W 168°54'2 1.5 1013.9 8.5
2015-Jun-29 14:50N 53°49' W 168°56'0 0.2 1013.6 8.6
2015-Jun-29 13:50N 53°50' W 168°56'0 0.0 1013.2 8.6
2015-Jun-29 12:50N 53°50' W 168°56'1 0.2 1013.1 8.6
2015-Jun-29 09:50N 53°50' W 168°57'2 0.6 1013.3 8.6
2015-Jun-29 05:50N 53°52' W 168°58'1 0.7 1012.8 8.5
2015-Jun-29 04:50N 53°53' W 168°58'1 1.0 1012.6 8.5
2015-Jun-29 03:50N 53°53' W 168°60'1 0.6 1012.6 8.5
2015-Jun-29 02:50N 53°53' W 168°60'1 0.6 1012.8 8.5
2015-Jun-29 01:50N 53°54' W 169°01'1 0.7 1013.3 8.4
2015-Jun-29 00:50N 53°53' W 169°02'1 0.3 1013.4 8.4
2015-Jun-28 22:50N 53°53' W 169°03'0 0.2 1013.9 8.4
2015-Jun-28 20:50N 53°54' W 169°03'0 0.3 1014.1 8.3
2015-Jun-28 19:50N 53°54' W 169°04'1 0.4 1014.4 8.2
2015-Jun-28 16:50N 53°55' W 169°04'1 0.5 1014.2 8.2
2015-Jun-28 14:50N 53°56' W 169°05'2 0.3 1014.2 8.2
2015-Jun-28 07:50N 53°56' W 169°09'1 1.0 1015.4 8.2
2015-Jun-28 06:50N 53°56' W 169°07'3 0.5 1015.3 8.2
2015-Jun-28 01:50N 53°58' W 169°10'0 0.5 1016.2 8.2
2015-Jun-28 00:50N 53°58' W 169°11'0 0.1 1016.4 8.2
2015-Jun-27 20:50N 53°58' W 169°12'3 0.5 1017.2 8.3
2015-Jun-27 15:50N 54°01' W 169°13'1 0.1 1017.6 8.4
2015-Jun-27 05:50N 54°01' W 169°15'0 0.3 1019.4 8.5
2015-Jun-27 04:50N 54°01' W 169°15'   1019.3 8.5

Dump ship's entire track history